sensor_id;sensor_type;location;lat;lon;timestamp;temperature;humidity
42031;DHT22;27709;52.036;5.906;2023-01-16T00:01:50;5.90;99.90
42031;DHT22;27709;52.036;5.906;2023-01-16T00:04:16;5.90;99.90
42031;DHT22;27709;52.036;5.906;2023-01-16T00:06:42;6.00;99.90
42031;DHT22;27709;52.036;5.906;2023-01-16T00:09:07;6.00;99.90
42031;DHT22;27709;52.036;5.906;2023-01-16T00:11:33;6.00;99.90
42031;DHT22;27709;52.036;5.906;2023-01-16T00:13:59;6.00;99.90
42031;DHT22;27709;52.036;5.906;2023-01-16T00:16:28;6.00;99.90
42031;DHT22;27709;52.036;5.906;2023-01-16T00:18:54;6.00;99.90
42031;DHT22;27709;52.036;5.906;2023-01-16T00:21:20;6.00;99.90
42031;DHT22;27709;52.036;5.906;2023-01-16T00:23:46;6.00;99.90
42031;DHT22;27709;52.036;5.906;2023-01-16T00:26:12;6.00;99.90
42031;DHT22;27709;52.036;5.906;2023-01-16T00:28:40;6.00;99.90
42031;DHT22;27709;52.036;5.906;2023-01-16T00:31:06;6.00;99.90
42031;DHT22;27709;52.036;5.906;2023-01-16T00:33:33;6.00;99.90
42031;DHT22;27709;52.036;5.906;2023-01-16T00:36:00;6.00;99.90
42031;DHT22;27709;52.036;5.906;2023-01-16T00:38:25;6.00;99.90
42031;DHT22;27709;52.036;5.906;2023-01-16T00:40:52;6.00;99.90
42031;DHT22;27709;52.036;5.906;2023-01-16T00:43:18;6.00;99.90
42031;DHT22;27709;52.036;5.906;2023-01-16T00:45:44;6.00;99.90
42031;DHT22;27709;52.036;5.906;2023-01-16T00:48:09;5.90;99.90
42031;DHT22;27709;52.036;5.906;2023-01-16T00:50:35;5.90;99.90
42031;DHT22;27709;52.036;5.906;2023-01-16T00:53:00;5.90;99.90
42031;DHT22;27709;52.036;5.906;2023-01-16T00:55:26;5.90;99.90
42031;DHT22;27709;52.036;5.906;2023-01-16T00:57:51;6.00;99.90
42031;DHT22;27709;52.036;5.906;2023-01-16T01:00:18;6.00;99.90
42031;DHT22;27709;52.036;5.906;2023-01-16T01:02:49;6.00;99.90
42031;DHT22;27709;52.036;5.906;2023-01-16T01:05:15;5.90;99.90
42031;DHT22;27709;52.036;5.906;2023-01-16T01:07:41;5.90;99.90
42031;DHT22;27709;52.036;5.906;2023-01-16T01:10:06;5.90;99.90
42031;DHT22;27709;52.036;5.906;2023-01-16T01:12:32;5.90;99.90
42031;DHT22;27709;52.036;5.906;2023-01-16T01:14:57;5.90;99.90
42031;DHT22;27709;52.036;5.906;2023-01-16T01:17:24;5.90;99.90
42031;DHT22;27709;52.036;5.906;2023-01-16T01:19:50;5.90;99.90
42031;DHT22;27709;52.036;5.906;2023-01-16T01:22:15;5.80;99.90
42031;DHT22;27709;52.036;5.906;2023-01-16T01:24:41;5.80;99.90
42031;DHT22;27709;52.036;5.906;2023-01-16T01:27:07;5.80;99.90
42031;DHT22;27709;52.036;5.906;2023-01-16T01:29:32;5.80;99.90
42031;DHT22;27709;52.036;5.906;2023-01-16T01:31:58;5.80;99.90
42031;DHT22;27709;52.036;5.906;2023-01-16T01:34:23;5.80;99.90
42031;DHT22;27709;52.036;5.906;2023-01-16T01:36:49;5.80;99.90
42031;DHT22;27709;52.036;5.906;2023-01-16T01:39:15;5.80;99.90
42031;DHT22;27709;52.036;5.906;2023-01-16T01:41:40;5.80;99.90
42031;DHT22;27709;52.036;5.906;2023-01-16T01:47:30;5.80;99.90
42031;DHT22;27709;52.036;5.906;2023-01-16T01:49:58;5.80;99.90
42031;DHT22;27709;52.036;5.906;2023-01-16T01:52:26;5.80;99.90
42031;DHT22;27709;52.036;5.906;2023-01-16T01:54:56;5.80;99.90
42031;DHT22;27709;52.036;5.906;2023-01-16T01:57:28;5.70;99.90
42031;DHT22;27709;52.036;5.906;2023-01-16T02:00:22;5.70;99.90
42031;DHT22;27709;52.036;5.906;2023-01-16T02:03:05;5.70;99.90
42031;DHT22;27709;52.036;5.906;2023-01-16T02:05:38;5.70;99.90
42031;DHT22;27709;52.036;5.906;2023-01-16T02:08:06;5.70;99.90
42031;DHT22;27709;52.036;5.906;2023-01-16T02:13:06;5.70;99.90
42031;DHT22;27709;52.036;5.906;2023-01-16T02:15:32;5.70;99.90
42031;DHT22;27709;52.036;5.906;2023-01-16T02:17:58;5.60;99.90
42031;DHT22;27709;52.036;5.906;2023-01-16T02:20:52;5.60;99.90
42031;DHT22;27709;52.036;5.906;2023-01-16T02:23:37;5.60;99.90
42031;DHT22;27709;52.036;5.906;2023-01-16T02:29:18;5.60;99.90
42031;DHT22;27709;52.036;5.906;2023-01-16T02:31:55;5.70;99.90
42031;DHT22;27709;52.036;5.906;2023-01-16T02:37:39;5.60;99.90
42031;DHT22;27709;52.036;5.906;2023-01-16T02:40:42;5.60;99.90
42031;DHT22;27709;52.036;5.906;2023-01-16T02:48:44;5.60;99.90
42031;DHT22;27709;52.036;5.906;2023-01-16T02:51:49;5.50;99.90
42031;DHT22;27709;52.036;5.906;2023-01-16T02:54:17;5.60;99.90
42031;DHT22;27709;52.036;5.906;2023-01-16T02:56:50;5.50;99.90
42031;DHT22;27709;52.036;5.906;2023-01-16T02:59:17;5.50;99.90
42031;DHT22;27709;52.036;5.906;2023-01-16T03:01:47;5.50;99.90
42031;DHT22;27709;52.036;5.906;2023-01-16T03:09:49;5.20;99.90
42031;DHT22;27709;52.036;5.906;2023-01-16T03:15:26;5.20;99.90
42031;DHT22;27709;52.036;5.906;2023-01-16T03:18:06;5.10;99.90
42031;DHT22;27709;52.036;5.906;2023-01-16T03:20:38;5.00;99.90
42031;DHT22;27709;52.036;5.906;2023-01-16T03:23:12;5.00;99.90
42031;DHT22;27709;52.036;5.906;2023-01-16T03:26:16;5.00;99.90
42031;DHT22;27709;52.036;5.906;2023-01-16T03:28:54;4.90;99.90
42031;DHT22;27709;52.036;5.906;2023-01-16T03:31:32;4.90;99.90
42031;DHT22;27709;52.036;5.906;2023-01-16T03:34:50;4.80;99.90
42031;DHT22;27709;52.036;5.906;2023-01-16T03:39:48;4.70;99.90
42031;DHT22;27709;52.036;5.906;2023-01-16T03:42:22;4.70;99.90
42031;DHT22;27709;52.036;5.906;2023-01-16T03:44:52;4.70;99.90
42031;DHT22;27709;52.036;5.906;2023-01-16T03:47:25;4.60;99.90
42031;DHT22;27709;52.036;5.906;2023-01-16T03:50:11;4.60;99.90
42031;DHT22;27709;52.036;5.906;2023-01-16T03:52:42;4.50;99.90
42031;DHT22;27709;52.036;5.906;2023-01-16T03:55:24;4.50;99.90
42031;DHT22;27709;52.036;5.906;2023-01-16T03:58:14;4.40;99.90
42031;DHT22;27709;52.036;5.906;2023-01-16T04:00:51;4.40;99.90
42031;DHT22;27709;52.036;5.906;2023-01-16T04:03:28;4.40;99.90
42031;DHT22;27709;52.036;5.906;2023-01-16T04:08:37;4.30;99.90
42031;DHT22;27709;52.036;5.906;2023-01-16T04:11:04;4.30;99.90
42031;DHT22;27709;52.036;5.906;2023-01-16T04:13:34;4.30;99.90
42031;DHT22;27709;52.036;5.906;2023-01-16T04:16:04;4.30;99.90
42031;DHT22;27709;52.036;5.906;2023-01-16T04:18:33;4.30;99.90
42031;DHT22;27709;52.036;5.906;2023-01-16T04:20:59;4.20;99.90
42031;DHT22;27709;52.036;5.906;2023-01-16T04:23:25;4.30;99.90
42031;DHT22;27709;52.036;5.906;2023-01-16T04:25:50;4.20;99.90
42031;DHT22;27709;52.036;5.906;2023-01-16T04:28:16;4.10;99.90
42031;DHT22;27709;52.036;5.906;2023-01-16T04:30:41;4.10;99.90
42031;DHT22;27709;52.036;5.906;2023-01-16T04:33:07;4.10;99.90
42031;DHT22;27709;52.036;5.906;2023-01-16T04:35:33;4.20;99.90
42031;DHT22;27709;52.036;5.906;2023-01-16T04:37:58;4.10;99.90
42031;DHT22;27709;52.036;5.906;2023-01-16T04:40:24;4.10;99.90
42031;DHT22;27709;52.036;5.906;2023-01-16T04:42:50;4.20;99.90
42031;DHT22;27709;52.036;5.906;2023-01-16T04:45:16;4.20;99.90
42031;DHT22;27709;52.036;5.906;2023-01-16T04:47:46;4.20;99.90
42031;DHT22;27709;52.036;5.906;2023-01-16T04:50:12;4.10;99.90
42031;DHT22;27709;52.036;5.906;2023-01-16T04:52:37;4.10;99.90
42031;DHT22;27709;52.036;5.906;2023-01-16T04:55:03;4.10;99.90
42031;DHT22;27709;52.036;5.906;2023-01-16T04:57:29;4.10;99.90
42031;DHT22;27709;52.036;5.906;2023-01-16T04:59:54;4.10;99.90
42031;DHT22;27709;52.036;5.906;2023-01-16T05:02:22;4.10;99.90
42031;DHT22;27709;52.036;5.906;2023-01-16T05:04:48;4.10;99.90
42031;DHT22;27709;52.036;5.906;2023-01-16T05:07:16;4.10;99.90
42031;DHT22;27709;52.036;5.906;2023-01-16T05:09:41;4.10;99.90
42031;DHT22;27709;52.036;5.906;2023-01-16T05:12:07;4.10;99.90
42031;DHT22;27709;52.036;5.906;2023-01-16T05:14:32;4.00;99.90
42031;DHT22;27709;52.036;5.906;2023-01-16T05:16:58;4.00;99.90
42031;DHT22;27709;52.036;5.906;2023-01-16T05:19:24;4.10;99.90
42031;DHT22;27709;52.036;5.906;2023-01-16T05:21:49;4.00;99.90
42031;DHT22;27709;52.036;5.906;2023-01-16T05:24:15;4.00;99.90
42031;DHT22;27709;52.036;5.906;2023-01-16T05:26:40;4.10;99.90
42031;DHT22;27709;52.036;5.906;2023-01-16T05:29:06;4.10;99.90
42031;DHT22;27709;52.036;5.906;2023-01-16T05:31:31;4.10;99.90
42031;DHT22;27709;52.036;5.906;2023-01-16T05:33:57;4.10;99.90
42031;DHT22;27709;52.036;5.906;2023-01-16T05:36:22;4.10;99.90
42031;DHT22;27709;52.036;5.906;2023-01-16T05:38:48;4.10;99.90
42031;DHT22;27709;52.036;5.906;2023-01-16T05:41:15;4.10;99.90
42031;DHT22;27709;52.036;5.906;2023-01-16T05:43:41;4.10;99.90
42031;DHT22;27709;52.036;5.906;2023-01-16T05:46:06;4.10;99.90
42031;DHT22;27709;52.036;5.906;2023-01-16T05:48:32;4.10;99.90
42031;DHT22;27709;52.036;5.906;2023-01-16T05:51:00;4.10;99.90
42031;DHT22;27709;52.036;5.906;2023-01-16T05:53:25;4.10;99.90
42031;DHT22;27709;52.036;5.906;2023-01-16T05:55:53;4.10;99.90
42031;DHT22;27709;52.036;5.906;2023-01-16T05:58:19;4.20;99.90
42031;DHT22;27709;52.036;5.906;2023-01-16T06:00:44;4.20;99.90
42031;DHT22;27709;52.036;5.906;2023-01-16T06:03:10;4.20;99.90
42031;DHT22;27709;52.036;5.906;2023-01-16T06:05:36;4.30;99.90
42031;DHT22;27709;52.036;5.906;2023-01-16T06:08:02;4.30;99.90
42031;DHT22;27709;52.036;5.906;2023-01-16T06:10:28;4.40;99.90
42031;DHT22;27709;52.036;5.906;2023-01-16T06:12:54;4.40;99.90
42031;DHT22;27709;52.036;5.906;2023-01-16T06:15:20;4.40;99.90
42031;DHT22;27709;52.036;5.906;2023-01-16T06:17:46;4.40;99.90
42031;DHT22;27709;52.036;5.906;2023-01-16T06:20:16;4.50;99.90
42031;DHT22;27709;52.036;5.906;2023-01-16T06:22:41;4.50;99.90
42031;DHT22;27709;52.036;5.906;2023-01-16T06:25:07;4.50;99.90
42031;DHT22;27709;52.036;5.906;2023-01-16T06:27:33;4.50;99.90
42031;DHT22;27709;52.036;5.906;2023-01-16T06:29:58;4.50;99.90
42031;DHT22;27709;52.036;5.906;2023-01-16T06:32:25;4.50;99.90
42031;DHT22;27709;52.036;5.906;2023-01-16T06:34:52;4.50;99.90
42031;DHT22;27709;52.036;5.906;2023-01-16T06:37:18;4.60;99.90
42031;DHT22;27709;52.036;5.906;2023-01-16T06:39:43;4.50;99.90
42031;DHT22;27709;52.036;5.906;2023-01-16T06:42:09;4.60;99.90
42031;DHT22;27709;52.036;5.906;2023-01-16T06:44:35;4.60;99.90
42031;DHT22;27709;52.036;5.906;2023-01-16T06:47:01;4.60;99.90
42031;DHT22;27709;52.036;5.906;2023-01-16T06:49:27;4.60;99.90
42031;DHT22;27709;52.036;5.906;2023-01-16T06:51:53;4.70;99.90
42031;DHT22;27709;52.036;5.906;2023-01-16T06:54:19;4.70;99.90
42031;DHT22;27709;52.036;5.906;2023-01-16T06:56:44;4.70;99.90
42031;DHT22;27709;52.036;5.906;2023-01-16T06:59:10;4.70;99.90
42031;DHT22;27709;52.036;5.906;2023-01-16T07:01:35;4.70;99.90
42031;DHT22;27709;52.036;5.906;2023-01-16T07:04:01;4.70;99.90
42031;DHT22;27709;52.036;5.906;2023-01-16T07:06:27;4.70;99.90
42031;DHT22;27709;52.036;5.906;2023-01-16T07:08:52;4.70;99.90
42031;DHT22;27709;52.036;5.906;2023-01-16T07:11:18;4.70;99.90
42031;DHT22;27709;52.036;5.906;2023-01-16T07:13:44;4.80;99.90
42031;DHT22;27709;52.036;5.906;2023-01-16T07:16:14;4.80;99.90
42031;DHT22;27709;52.036;5.906;2023-01-16T07:18:58;4.80;99.90
42031;DHT22;27709;52.036;5.906;2023-01-16T07:21:45;4.80;99.90
42031;DHT22;27709;52.036;5.906;2023-01-16T07:24:33;4.80;99.90
42031;DHT22;27709;52.036;5.906;2023-01-16T07:27:02;4.80;99.90
42031;DHT22;27709;52.036;5.906;2023-01-16T07:29:31;4.80;99.90
42031;DHT22;27709;52.036;5.906;2023-01-16T07:31:58;4.80;99.90
42031;DHT22;27709;52.036;5.906;2023-01-16T07:34:25;4.70;99.90
42031;DHT22;27709;52.036;5.906;2023-01-16T07:36:51;4.70;99.90
42031;DHT22;27709;52.036;5.906;2023-01-16T07:39:17;4.80;99.90
42031;DHT22;27709;52.036;5.906;2023-01-16T07:41:42;4.70;99.90
42031;DHT22;27709;52.036;5.906;2023-01-16T07:44:09;4.70;99.90
42031;DHT22;27709;52.036;5.906;2023-01-16T07:46:35;4.70;99.90
42031;DHT22;27709;52.036;5.906;2023-01-16T07:49:00;4.70;99.90
42031;DHT22;27709;52.036;5.906;2023-01-16T07:51:26;4.70;99.90
42031;DHT22;27709;52.036;5.906;2023-01-16T07:53:52;4.70;99.90
42031;DHT22;27709;52.036;5.906;2023-01-16T07:56:17;4.70;99.90
42031;DHT22;27709;52.036;5.906;2023-01-16T07:58:43;4.70;99.90
42031;DHT22;27709;52.036;5.906;2023-01-16T08:01:09;4.60;99.90
42031;DHT22;27709;52.036;5.906;2023-01-16T08:03:35;4.60;99.90
42031;DHT22;27709;52.036;5.906;2023-01-16T08:06:01;4.60;99.90
42031;DHT22;27709;52.036;5.906;2023-01-16T08:08:28;4.70;99.90
42031;DHT22;27709;52.036;5.906;2023-01-16T08:10:55;4.60;99.90
42031;DHT22;27709;52.036;5.906;2023-01-16T08:13:21;4.60;99.90
42031;DHT22;27709;52.036;5.906;2023-01-16T08:15:47;4.60;99.90
42031;DHT22;27709;52.036;5.906;2023-01-16T08:18:12;4.60;99.90
42031;DHT22;27709;52.036;5.906;2023-01-16T08:20:38;4.60;99.90
42031;DHT22;27709;52.036;5.906;2023-01-16T08:23:04;4.60;99.90
42031;DHT22;27709;52.036;5.906;2023-01-16T08:25:29;4.60;99.90
42031;DHT22;27709;52.036;5.906;2023-01-16T08:27:55;4.60;99.90
42031;DHT22;27709;52.036;5.906;2023-01-16T08:30:20;4.60;99.90
42031;DHT22;27709;52.036;5.906;2023-01-16T08:32:46;4.60;99.90
42031;DHT22;27709;52.036;5.906;2023-01-16T08:35:11;4.60;99.90
42031;DHT22;27709;52.036;5.906;2023-01-16T08:37:37;4.60;99.90
42031;DHT22;27709;52.036;5.906;2023-01-16T08:40:03;4.60;99.90
42031;DHT22;27709;52.036;5.906;2023-01-16T08:42:32;4.60;99.90
42031;DHT22;27709;52.036;5.906;2023-01-16T08:45:17;4.60;99.90
42031;DHT22;27709;52.036;5.906;2023-01-16T08:48:02;4.60;99.90
42031;DHT22;27709;52.036;5.906;2023-01-16T08:50:47;4.60;99.90
42031;DHT22;27709;52.036;5.906;2023-01-16T08:53:32;4.60;99.90
42031;DHT22;27709;52.036;5.906;2023-01-16T08:55:58;4.60;99.90
42031;DHT22;27709;52.036;5.906;2023-01-16T08:58:23;4.60;99.90
42031;DHT22;27709;52.036;5.906;2023-01-16T09:00:49;4.60;99.90
42031;DHT22;27709;52.036;5.906;2023-01-16T09:03:15;4.60;99.90
42031;DHT22;27709;52.036;5.906;2023-01-16T09:05:43;4.70;99.90
42031;DHT22;27709;52.036;5.906;2023-01-16T09:08:09;4.70;99.90
42031;DHT22;27709;52.036;5.906;2023-01-16T09:10:35;4.70;99.90
42031;DHT22;27709;52.036;5.906;2023-01-16T09:13:00;4.70;99.90
42031;DHT22;27709;52.036;5.906;2023-01-16T09:15:44;4.70;99.90
42031;DHT22;27709;52.036;5.906;2023-01-16T09:18:10;4.80;99.90
42031;DHT22;27709;52.036;5.906;2023-01-16T09:20:35;4.80;99.90
42031;DHT22;27709;52.036;5.906;2023-01-16T09:23:03;4.80;99.90
42031;DHT22;27709;52.036;5.906;2023-01-16T09:25:30;4.80;99.90
42031;DHT22;27709;52.036;5.906;2023-01-16T09:27:56;4.80;99.90
42031;DHT22;27709;52.036;5.906;2023-01-16T09:30:21;4.90;99.90
42031;DHT22;27709;52.036;5.906;2023-01-16T09:32:47;4.90;99.90
42031;DHT22;27709;52.036;5.906;2023-01-16T09:35:13;4.90;99.90
42031;DHT22;27709;52.036;5.906;2023-01-16T09:37:39;4.90;99.90
42031;DHT22;27709;52.036;5.906;2023-01-16T09:40:10;4.90;99.90
42031;DHT22;27709;52.036;5.906;2023-01-16T09:45:29;4.90;99.90
42031;DHT22;27709;52.036;5.906;2023-01-16T09:48:01;4.90;99.90
42031;DHT22;27709;52.036;5.906;2023-01-16T09:50:41;5.00;99.90
42031;DHT22;27709;52.036;5.906;2023-01-16T09:53:18;5.00;99.90
42031;DHT22;27709;52.036;5.906;2023-01-16T09:56:03;5.00;99.90
42031;DHT22;27709;52.036;5.906;2023-01-16T09:59:01;5.00;99.90
42031;DHT22;27709;52.036;5.906;2023-01-16T10:01:43;5.00;99.90
42031;DHT22;27709;52.036;5.906;2023-01-16T10:04:20;5.00;99.90
42031;DHT22;27709;52.036;5.906;2023-01-16T10:21:23;5.00;99.90
42031;DHT22;27709;52.036;5.906;2023-01-16T10:24:11;5.00;99.90
42031;DHT22;27709;52.036;5.906;2023-01-16T10:26:58;5.00;99.90
42031;DHT22;27709;52.036;5.906;2023-01-16T10:29:35;5.00;99.90
42031;DHT22;27709;52.036;5.906;2023-01-16T10:32:19;5.00;99.90
42031;DHT22;27709;52.036;5.906;2023-01-16T10:35:17;5.00;99.90
42031;DHT22;27709;52.036;5.906;2023-01-16T10:37:46;5.00;99.90
42031;DHT22;27709;52.036;5.906;2023-01-16T10:40:22;5.00;99.90
42031;DHT22;27709;52.036;5.906;2023-01-16T10:42:59;5.00;99.90
42031;DHT22;27709;52.036;5.906;2023-01-16T10:45:54;5.00;99.90
42031;DHT22;27709;52.036;5.906;2023-01-16T10:48:39;5.00;99.90
42031;DHT22;27709;52.036;5.906;2023-01-16T10:51:23;5.00;99.90
42031;DHT22;27709;52.036;5.906;2023-01-16T10:53:50;5.00;99.90
42031;DHT22;27709;52.036;5.906;2023-01-16T10:56:15;5.10;99.90
42031;DHT22;27709;52.036;5.906;2023-01-16T10:58:41;5.10;99.90
42031;DHT22;27709;52.036;5.906;2023-01-16T11:01:17;5.10;99.90
42031;DHT22;27709;52.036;5.906;2023-01-16T11:03:49;5.10;99.90
42031;DHT22;27709;52.036;5.906;2023-01-16T11:06:23;5.10;99.90
42031;DHT22;27709;52.036;5.906;2023-01-16T11:08:53;5.10;99.90
42031;DHT22;27709;52.036;5.906;2023-01-16T11:11:21;5.10;99.90
42031;DHT22;27709;52.036;5.906;2023-01-16T11:14:21;5.10;99.90
42031;DHT22;27709;52.036;5.906;2023-01-16T11:17:31;5.10;99.90
42031;DHT22;27709;52.036;5.906;2023-01-16T11:20:25;5.10;99.90
42031;DHT22;27709;52.036;5.906;2023-01-16T11:22:56;5.10;99.90
42031;DHT22;27709;52.036;5.906;2023-01-16T11:25:26;5.10;99.90
42031;DHT22;27709;52.036;5.906;2023-01-16T11:27:54;5.20;99.90
42031;DHT22;27709;52.036;5.906;2023-01-16T11:30:30;5.20;99.90
42031;DHT22;27709;52.036;5.906;2023-01-16T11:32:57;5.20;99.90
42031;DHT22;27709;52.036;5.906;2023-01-16T11:35:31;5.20;99.90
42031;DHT22;27709;52.036;5.906;2023-01-16T11:37:58;5.20;99.90
42031;DHT22;27709;52.036;5.906;2023-01-16T11:40:25;5.30;99.90
42031;DHT22;27709;52.036;5.906;2023-01-16T11:42:54;5.30;99.90
42031;DHT22;27709;52.036;5.906;2023-01-16T11:45:45;5.30;99.90
42031;DHT22;27709;52.036;5.906;2023-01-16T11:48:43;5.40;99.90
42031;DHT22;27709;52.036;5.906;2023-01-16T11:51:18;5.60;99.90
42031;DHT22;27709;52.036;5.906;2023-01-16T11:53:47;5.80;99.90
42031;DHT22;27709;52.036;5.906;2023-01-16T12:02:40;6.00;99.90
42031;DHT22;27709;52.036;5.906;2023-01-16T12:11:08;5.70;99.90
42031;DHT22;27709;52.036;5.906;2023-01-16T12:25:38;5.80;99.90
42031;DHT22;27709;52.036;5.906;2023-01-16T12:39:27;6.00;99.90
42031;DHT22;27709;52.036;5.906;2023-01-16T12:42:05;6.00;99.90
42031;DHT22;27709;52.036;5.906;2023-01-16T12:53:26;5.90;99.90
42031;DHT22;27709;52.036;5.906;2023-01-16T12:58:39;6.00;99.90
42031;DHT22;27709;52.036;5.906;2023-01-16T13:01:15;6.00;99.90
42031;DHT22;27709;52.036;5.906;2023-01-16T13:03:58;6.00;99.90
42031;DHT22;27709;52.036;5.906;2023-01-16T13:09:03;6.00;99.90
42031;DHT22;27709;52.036;5.906;2023-01-16T13:11:47;6.00;99.90
42031;DHT22;27709;52.036;5.906;2023-01-16T13:14:32;6.00;99.90
42031;DHT22;27709;52.036;5.906;2023-01-16T13:17:12;6.00;99.90
42031;DHT22;27709;52.036;5.906;2023-01-16T13:19:40;6.10;99.90
42031;DHT22;27709;52.036;5.906;2023-01-16T13:22:29;6.10;99.90
42031;DHT22;27709;52.036;5.906;2023-01-16T13:25:04;6.10;99.90
42031;DHT22;27709;52.036;5.906;2023-01-16T13:27:47;6.10;99.90
42031;DHT22;27709;52.036;5.906;2023-01-16T13:30:16;6.00;99.90
42031;DHT22;27709;52.036;5.906;2023-01-16T13:32:56;6.00;99.90
42031;DHT22;27709;52.036;5.906;2023-01-16T13:35:33;6.00;99.90
42031;DHT22;27709;52.036;5.906;2023-01-16T13:38:13;6.00;99.90
42031;DHT22;27709;52.036;5.906;2023-01-16T13:41:10;6.00;99.90
42031;DHT22;27709;52.036;5.906;2023-01-16T13:46:30;5.90;99.90
42031;DHT22;27709;52.036;5.906;2023-01-16T13:49:00;5.90;99.90
42031;DHT22;27709;52.036;5.906;2023-01-16T13:51:27;5.90;99.90
42031;DHT22;27709;52.036;5.906;2023-01-16T13:54:01;5.90;99.90
42031;DHT22;27709;52.036;5.906;2023-01-16T13:56:28;5.90;99.90
42031;DHT22;27709;52.036;5.906;2023-01-16T13:58:58;5.90;99.90
42031;DHT22;27709;52.036;5.906;2023-01-16T14:06:46;5.80;99.90
42031;DHT22;27709;52.036;5.906;2023-01-16T14:09:22;5.90;99.90
42031;DHT22;27709;52.036;5.906;2023-01-16T14:12:00;5.80;99.90
42031;DHT22;27709;52.036;5.906;2023-01-16T14:15:03;5.80;99.90
42031;DHT22;27709;52.036;5.906;2023-01-16T14:20:43;5.80;99.90
42031;DHT22;27709;52.036;5.906;2023-01-16T14:23:31;5.80;99.90
42031;DHT22;27709;52.036;5.906;2023-01-16T14:26:45;5.80;99.90
42031;DHT22;27709;52.036;5.906;2023-01-16T14:29:17;5.70;99.90
42031;DHT22;27709;52.036;5.906;2023-01-16T14:34:25;5.70;99.90
42031;DHT22;27709;52.036;5.906;2023-01-16T14:36:55;5.70;99.90
42031;DHT22;27709;52.036;5.906;2023-01-16T14:39:33;5.60;99.90
42031;DHT22;27709;52.036;5.906;2023-01-16T14:42:04;5.60;99.90
42031;DHT22;27709;52.036;5.906;2023-01-16T14:47:56;5.50;99.90
42031;DHT22;27709;52.036;5.906;2023-01-16T14:51:27;5.50;99.90
42031;DHT22;27709;52.036;5.906;2023-01-16T14:57:17;5.50;99.90
42031;DHT22;27709;52.036;5.906;2023-01-16T14:59:56;5.50;99.90
42031;DHT22;27709;52.036;5.906;2023-01-16T15:02:28;5.50;99.90
42031;DHT22;27709;52.036;5.906;2023-01-16T15:04:59;5.50;99.90
42031;DHT22;27709;52.036;5.906;2023-01-16T15:07:41;5.50;99.90
42031;DHT22;27709;52.036;5.906;2023-01-16T15:12:41;5.40;99.90
42031;DHT22;27709;52.036;5.906;2023-01-16T15:15:28;5.40;99.90
42031;DHT22;27709;52.036;5.906;2023-01-16T15:17:57;5.40;99.90
42031;DHT22;27709;52.036;5.906;2023-01-16T15:20:46;5.50;99.90
42031;DHT22;27709;52.036;5.906;2023-01-16T15:23:31;5.50;99.90
42031;DHT22;27709;52.036;5.906;2023-01-16T15:31:30;5.50;99.90
42031;DHT22;27709;52.036;5.906;2023-01-16T15:34:05;5.50;99.90
42031;DHT22;27709;52.036;5.906;2023-01-16T15:41:37;5.50;99.90
42031;DHT22;27709;52.036;5.906;2023-01-16T15:44:27;5.50;99.90
42031;DHT22;27709;52.036;5.906;2023-01-16T15:47:35;5.60;99.90
42031;DHT22;27709;52.036;5.906;2023-01-16T15:52:51;5.60;99.90
42031;DHT22;27709;52.036;5.906;2023-01-16T15:55:35;5.50;99.90
42031;DHT22;27709;52.036;5.906;2023-01-16T15:58:02;5.50;99.90
42031;DHT22;27709;52.036;5.906;2023-01-16T16:00:34;5.50;99.90
42031;DHT22;27709;52.036;5.906;2023-01-16T16:03:18;5.50;99.90
42031;DHT22;27709;52.036;5.906;2023-01-16T16:05:49;5.50;99.90
42031;DHT22;27709;52.036;5.906;2023-01-16T16:08:18;5.50;99.90
42031;DHT22;27709;52.036;5.906;2023-01-16T16:10:45;5.50;99.90
42031;DHT22;27709;52.036;5.906;2023-01-16T16:13:30;5.40;99.90
42031;DHT22;27709;52.036;5.906;2023-01-16T16:15:58;5.40;99.90
42031;DHT22;27709;52.036;5.906;2023-01-16T16:19:00;5.40;99.90
42031;DHT22;27709;52.036;5.906;2023-01-16T16:21:29;5.50;99.90
42031;DHT22;27709;52.036;5.906;2023-01-16T16:24:14;5.50;99.90
42031;DHT22;27709;52.036;5.906;2023-01-16T16:26:42;5.50;99.90
42031;DHT22;27709;52.036;5.906;2023-01-16T16:29:21;5.50;99.90
42031;DHT22;27709;52.036;5.906;2023-01-16T16:31:47;5.50;99.90
42031;DHT22;27709;52.036;5.906;2023-01-16T16:34:17;5.50;99.90
42031;DHT22;27709;52.036;5.906;2023-01-16T16:36:47;5.50;99.90
42031;DHT22;27709;52.036;5.906;2023-01-16T16:41:58;5.50;99.90
42031;DHT22;27709;52.036;5.906;2023-01-16T16:45:12;5.50;99.90
42031;DHT22;27709;52.036;5.906;2023-01-16T16:47:44;5.50;99.90
42031;DHT22;27709;52.036;5.906;2023-01-16T16:50:31;5.50;99.90
42031;DHT22;27709;52.036;5.906;2023-01-16T16:53:10;5.50;99.90
42031;DHT22;27709;52.036;5.906;2023-01-16T16:55:38;5.50;99.90
42031;DHT22;27709;52.036;5.906;2023-01-16T16:58:12;5.50;99.90
42031;DHT22;27709;52.036;5.906;2023-01-16T17:00:39;5.50;99.90
42031;DHT22;27709;52.036;5.906;2023-01-16T17:03:25;5.50;99.90
42031;DHT22;27709;52.036;5.906;2023-01-16T17:05:54;5.50;99.90
42031;DHT22;27709;52.036;5.906;2023-01-16T17:08:25;5.50;99.90
42031;DHT22;27709;52.036;5.906;2023-01-16T17:10:54;5.50;99.90
42031;DHT22;27709;52.036;5.906;2023-01-16T17:13:22;5.60;99.90
42031;DHT22;27709;52.036;5.906;2023-01-16T17:15:53;5.50;99.90
42031;DHT22;27709;52.036;5.906;2023-01-16T17:18:19;5.50;99.90
42031;DHT22;27709;52.036;5.906;2023-01-16T17:20:45;5.60;99.90
42031;DHT22;27709;52.036;5.906;2023-01-16T17:23:16;5.60;99.90
42031;DHT22;27709;52.036;5.906;2023-01-16T17:25:48;5.60;99.90
42031;DHT22;27709;52.036;5.906;2023-01-16T17:28:15;5.60;99.90
42031;DHT22;27709;52.036;5.906;2023-01-16T17:30:41;5.60;99.90
42031;DHT22;27709;52.036;5.906;2023-01-16T17:33:15;5.70;99.90
42031;DHT22;27709;52.036;5.906;2023-01-16T17:35:46;5.70;99.90
42031;DHT22;27709;52.036;5.906;2023-01-16T17:38:15;5.70;99.90
42031;DHT22;27709;52.036;5.906;2023-01-16T17:40:41;5.70;99.90
42031;DHT22;27709;52.036;5.906;2023-01-16T17:43:17;5.60;99.90
42031;DHT22;27709;52.036;5.906;2023-01-16T17:46:05;5.60;99.90
42031;DHT22;27709;52.036;5.906;2023-01-16T17:48:31;5.60;99.90
42031;DHT22;27709;52.036;5.906;2023-01-16T17:50:58;5.60;99.90
42031;DHT22;27709;52.036;5.906;2023-01-16T17:53:30;5.60;99.90
42031;DHT22;27709;52.036;5.906;2023-01-16T17:56:01;5.60;99.90
42031;DHT22;27709;52.036;5.906;2023-01-16T17:58:32;5.60;99.90
42031;DHT22;27709;52.036;5.906;2023-01-16T18:01:21;5.60;99.90
42031;DHT22;27709;52.036;5.906;2023-01-16T18:03:52;5.60;99.90
42031;DHT22;27709;52.036;5.906;2023-01-16T18:06:26;5.60;99.90
42031;DHT22;27709;52.036;5.906;2023-01-16T18:08:53;5.60;99.90
42031;DHT22;27709;52.036;5.906;2023-01-16T18:11:20;5.60;99.90
42031;DHT22;27709;52.036;5.906;2023-01-16T18:14:05;5.60;99.90
42031;DHT22;27709;52.036;5.906;2023-01-16T18:16:49;5.60;99.90
42031;DHT22;27709;52.036;5.906;2023-01-16T18:19:33;5.50;99.90
42031;DHT22;27709;52.036;5.906;2023-01-16T18:22:00;5.60;99.90
42031;DHT22;27709;52.036;5.906;2023-01-16T18:24:33;5.60;99.90
42031;DHT22;27709;52.036;5.906;2023-01-16T18:27:00;5.60;99.90
42031;DHT22;27709;52.036;5.906;2023-01-16T18:29:27;5.60;99.90
42031;DHT22;27709;52.036;5.906;2023-01-16T18:31:52;5.60;99.90
42031;DHT22;27709;52.036;5.906;2023-01-16T18:34:36;5.60;99.90